createdAt,value
2023-01-19T00:00:34.989Z,9.52
2023-01-19T00:03:05.106Z,9.41
2023-01-19T00:05:33.884Z,9.48
2023-01-19T00:08:14.800Z,9.53
2023-01-19T00:10:47.064Z,9.49
2023-01-19T00:13:15.322Z,9.43
2023-01-19T00:15:49.249Z,9.43
2023-01-19T00:18:15.980Z,9.42
2023-01-19T00:20:45.556Z,9.38
2023-01-19T00:23:13.187Z,9.28
2023-01-19T00:25:42.861Z,9.31
2023-01-19T00:28:15.349Z,9.27
2023-01-19T00:30:42.833Z,9.30
2023-01-19T00:33:10.917Z,9.29
2023-01-19T00:35:37.692Z,9.36
2023-01-19T00:38:04.393Z,9.38
2023-01-19T00:40:31.069Z,9.37
2023-01-19T00:42:59.000Z,9.33
2023-01-19T00:45:26.143Z,9.35
2023-01-19T00:47:57.361Z,9.43
2023-01-19T00:50:28.782Z,9.42
2023-01-19T00:52:57.085Z,9.34
2023-01-19T00:55:24.367Z,9.40
2023-01-19T00:57:51.661Z,9.38
2023-01-19T01:00:22.317Z,9.38
2023-01-19T01:02:50.861Z,9.40
2023-01-19T01:05:18.653Z,9.37
2023-01-19T01:07:45.982Z,9.49
2023-01-19T01:10:19.040Z,9.39
2023-01-19T01:13:20.554Z,9.38
2023-01-19T01:15:33.292Z,9.36
2023-01-19T01:17:59.959Z,9.36
2023-01-19T01:20:37.858Z,9.39
2023-01-19T01:23:04.753Z,9.33
2023-01-19T01:25:34.110Z,9.20
2023-01-19T01:28:00.885Z,9.31
2023-01-19T01:30:27.619Z,9.36
2023-01-19T01:32:54.886Z,9.32
2023-01-19T01:35:21.597Z,9.41
2023-01-19T01:37:48.259Z,9.36
2023-01-19T01:40:17.731Z,9.33
2023-01-19T01:42:45.805Z,9.29
2023-01-19T01:45:35.163Z,9.30
2023-01-19T01:48:10.069Z,9.27
2023-01-19T01:51:02.089Z,9.27
2023-01-19T01:53:30.909Z,9.11
2023-01-19T01:55:59.928Z,9.19
2023-01-19T01:58:27.170Z,9.21
2023-01-19T02:01:13.734Z,9.22
2023-01-19T02:03:40.656Z,9.19
2023-01-19T02:06:08.392Z,9.32
2023-01-19T02:09:03.796Z,9.20
2023-01-19T02:11:50.626Z,9.22
2023-01-19T02:14:18.997Z,9.22
2023-01-19T02:16:46.728Z,9.05
2023-01-19T02:19:18.374Z,9.02
2023-01-19T02:21:57.487Z,9.10
2023-01-19T02:24:24.990Z,9.17
2023-01-19T02:26:52.123Z,9.18
2023-01-19T02:29:20.997Z,9.09
2023-01-19T02:31:48.001Z,9.11
2023-01-19T02:34:20.659Z,9.16
2023-01-19T02:37:06.688Z,9.05
2023-01-19T02:39:43.024Z,8.93
2023-01-19T02:42:15.250Z,8.93
2023-01-19T02:44:46.423Z,8.95
2023-01-19T02:47:13.898Z,8.98
2023-01-19T02:49:40.788Z,9.01
2023-01-19T02:52:15.317Z,8.97
2023-01-19T02:54:51.069Z,9.06
2023-01-19T02:57:27.409Z,9.13
2023-01-19T03:00:19.807Z,9.08
2023-01-19T03:03:06.085Z,9.00
2023-01-19T03:05:54.394Z,9.06
2023-01-19T03:08:33.211Z,9.06
2023-01-19T03:11:08.229Z,9.10
2023-01-19T03:13:52.084Z,8.95
2023-01-19T03:16:33.068Z,8.98
2023-01-19T03:19:17.827Z,8.98
2023-01-19T03:21:48.633Z,9.01
2023-01-19T03:24:18.127Z,8.86
2023-01-19T03:26:50.084Z,8.86
2023-01-19T03:29:19.816Z,8.93
2023-01-19T03:31:49.950Z,9.08
2023-01-19T03:34:22.051Z,9.08
2023-01-19T03:36:55.690Z,9.04
2023-01-19T03:39:24.679Z,9.08
2023-01-19T03:41:56.654Z,9.04
2023-01-19T03:44:26.373Z,8.96
2023-01-19T03:46:53.609Z,9.03
2023-01-19T03:49:20.366Z,8.98
2023-01-19T03:51:47.338Z,8.93
2023-01-19T03:54:14.090Z,8.91
2023-01-19T03:56:40.793Z,8.83
2023-01-19T03:59:07.514Z,8.73
2023-01-19T04:01:34.371Z,8.78
2023-01-19T04:04:01.132Z,8.68
2023-01-19T04:06:28.335Z,8.62
2023-01-19T04:08:55.098Z,8.65
2023-01-19T04:11:21.801Z,8.66
2023-01-19T04:13:48.732Z,8.72
2023-01-19T04:16:20.044Z,8.84
2023-01-19T04:18:47.443Z,8.79
2023-01-19T04:21:14.633Z,8.85
2023-01-19T04:23:41.394Z,8.84
2023-01-19T04:26:08.813Z,8.83
2023-01-19T04:28:37.236Z,8.67
2023-01-19T04:31:05.120Z,8.71
2023-01-19T04:33:32.502Z,8.72
2023-01-19T04:35:59.181Z,8.69
2023-01-19T04:38:26.767Z,8.78
2023-01-19T04:40:54.374Z,8.68
2023-01-19T04:43:22.636Z,8.60
2023-01-19T04:45:49.751Z,8.84
2023-01-19T04:48:18.482Z,8.89
2023-01-19T04:50:45.758Z,8.72
2023-01-19T04:53:13.886Z,8.78
2023-01-19T04:55:40.751Z,8.68
2023-01-19T04:58:09.711Z,8.81
2023-01-19T05:00:37.548Z,8.82
2023-01-19T05:03:05.748Z,8.82
2023-01-19T05:05:33.339Z,8.76
2023-01-19T05:08:00.658Z,8.79
2023-01-19T05:10:27.380Z,8.77
2023-01-19T05:12:54.041Z,8.63
2023-01-19T05:15:21.963Z,8.68
2023-01-19T05:17:48.612Z,8.57
2023-01-19T05:20:16.543Z,8.59
2023-01-19T05:22:48.762Z,8.52
2023-01-19T05:25:15.458Z,8.54
2023-01-19T05:27:42.460Z,8.62
2023-01-19T05:30:10.143Z,8.53
2023-01-19T05:32:36.820Z,8.46
2023-01-19T05:35:03.699Z,8.44
2023-01-19T05:37:32.664Z,8.31
2023-01-19T05:39:59.354Z,8.36
2023-01-19T05:42:26.003Z,8.33
2023-01-19T05:44:52.897Z,8.53
2023-01-19T05:47:19.630Z,8.56
2023-01-19T05:49:46.235Z,8.53
2023-01-19T05:52:12.892Z,8.45
2023-01-19T05:54:40.518Z,8.53
2023-01-19T05:57:07.836Z,8.42
2023-01-19T05:59:34.766Z,8.51
2023-01-19T06:02:01.565Z,8.56
2023-01-19T06:04:28.386Z,8.52
2023-01-19T06:06:55.181Z,8.67
2023-01-19T06:09:21.881Z,8.64
2023-01-19T06:11:49.060Z,8.68
2023-01-19T06:14:15.939Z,8.71
2023-01-19T06:16:42.700Z,8.68
2023-01-19T06:19:09.725Z,8.73
2023-01-19T06:21:36.337Z,8.74
2023-01-19T06:24:03.616Z,8.84
2023-01-19T06:26:30.468Z,8.92
2023-01-19T06:28:57.191Z,8.80
2023-01-19T06:31:23.968Z,8.73
2023-01-19T06:33:50.880Z,8.72
2023-01-19T06:36:17.617Z,8.84
2023-01-19T06:38:44.397Z,8.86
2023-01-19T06:41:11.298Z,8.86
2023-01-19T06:43:38.030Z,8.96
2023-01-19T06:46:04.991Z,8.82
2023-01-19T06:48:32.848Z,8.89
2023-01-19T06:51:00.029Z,9.02
2023-01-19T06:53:28.355Z,9.08
2023-01-19T06:55:59.728Z,9.22
2023-01-19T06:58:27.605Z,9.32
2023-01-19T07:00:54.773Z,9.37
2023-01-19T07:03:23.141Z,9.43
2023-01-19T07:05:53.673Z,9.55
2023-01-19T07:08:21.110Z,9.60
2023-01-19T07:11:22.167Z,9.58
2023-01-19T07:13:35.937Z,9.76
2023-01-19T07:16:11.621Z,9.89
2023-01-19T07:18:39.678Z,9.92
2023-01-19T07:21:07.135Z,10.15
2023-01-19T07:23:34.191Z,10.60
2023-01-19T07:26:01.912Z,11.24
2023-01-19T07:28:29.662Z,10.86
2023-01-19T07:30:56.472Z,11.10
2023-01-19T07:33:25.089Z,11.04
2023-01-19T07:35:52.344Z,11.04
2023-01-19T07:38:20.384Z,10.75
2023-01-19T07:40:47.513Z,10.59
2023-01-19T07:43:14.933Z,10.72
2023-01-19T07:45:42.047Z,11.19
2023-01-19T07:48:08.907Z,11.32
2023-01-19T07:50:35.587Z,11.06
2023-01-19T07:53:07.513Z,10.82
2023-01-19T07:55:34.589Z,11.22
2023-01-19T07:58:01.362Z,11.30
2023-01-19T08:00:28.119Z,11.05
2023-01-19T08:03:00.459Z,11.11
2023-01-19T08:05:29.266Z,10.86
2023-01-19T08:07:57.718Z,10.74
2023-01-19T08:10:26.784Z,10.83
2023-01-19T08:12:54.518Z,12.01
2023-01-19T08:15:24.106Z,12.34
2023-01-19T08:18:09.385Z,11.93
2023-01-19T08:20:36.900Z,12.53
2023-01-19T08:23:04.981Z,12.22
2023-01-19T08:25:42.378Z,11.95
2023-01-19T08:28:09.596Z,12.07
2023-01-19T08:30:36.777Z,12.75
2023-01-19T08:33:08.351Z,12.77
2023-01-19T08:35:38.329Z,12.72
2023-01-19T08:38:06.726Z,13.17
2023-01-19T08:40:37.943Z,13.97
2023-01-19T08:43:08.023Z,14.96
2023-01-19T08:45:41.646Z,13.90
2023-01-19T08:48:08.592Z,13.79
2023-01-19T08:50:35.379Z,13.61
2023-01-19T08:53:06.156Z,12.85
2023-01-19T08:55:35.852Z,12.74
2023-01-19T08:58:06.674Z,13.45
2023-01-19T09:00:34.396Z,13.03
2023-01-19T09:03:03.592Z,13.63
2023-01-19T09:05:39.000Z,13.43
2023-01-19T09:08:08.268Z,13.02
2023-01-19T09:10:37.808Z,12.92
2023-01-19T09:13:05.786Z,12.04
2023-01-19T09:15:35.773Z,11.89
2023-01-19T09:18:04.690Z,11.97
2023-01-19T09:20:31.609Z,12.17
2023-01-19T09:22:58.939Z,12.15
2023-01-19T09:25:25.862Z,12.40
2023-01-19T09:27:53.101Z,12.56
2023-01-19T09:30:21.080Z,11.94
2023-01-19T09:32:47.775Z,11.66
2023-01-19T09:35:14.681Z,12.31
2023-01-19T09:37:45.536Z,12.23
2023-01-19T09:40:12.712Z,11.75
2023-01-19T09:42:45.082Z,13.28
2023-01-19T09:45:17.963Z,14.73
2023-01-19T09:47:47.035Z,14.24
2023-01-19T09:50:28.484Z,14.03
2023-01-19T09:53:01.496Z,14.09
2023-01-19T09:55:28.699Z,14.30
2023-01-19T09:57:55.497Z,13.35
2023-01-19T10:00:24.348Z,13.35
2023-01-19T10:03:00.785Z,12.88
2023-01-19T10:05:42.466Z,13.06
2023-01-19T10:08:27.637Z,13.16
2023-01-19T10:10:56.794Z,13.84
2023-01-19T10:13:48.952Z,14.62
2023-01-19T10:16:45.756Z,14.23
2023-01-19T10:19:27.349Z,14.90
2023-01-19T10:21:58.140Z,15.47
2023-01-19T10:24:33.349Z,14.52
2023-01-19T10:27:00.682Z,15.90
2023-01-19T10:29:38.851Z,16.21
2023-01-19T10:32:10.284Z,16.29
2023-01-19T10:34:37.262Z,15.29
2023-01-19T10:37:32.265Z,14.30
2023-01-19T10:40:10.908Z,15.06
2023-01-19T10:42:40.509Z,15.00
2023-01-19T10:45:19.075Z,15.54
2023-01-19T10:47:47.541Z,14.70
2023-01-19T10:50:27.821Z,14.66
2023-01-19T10:53:00.914Z,14.25
2023-01-19T10:55:34.895Z,13.70
2023-01-19T10:58:02.191Z,13.36
2023-01-19T11:00:31.889Z,12.64
2023-01-19T11:02:58.828Z,12.32
2023-01-19T11:05:31.746Z,12.93
2023-01-19T11:07:58.915Z,14.19
2023-01-19T11:10:28.541Z,13.43
2023-01-19T11:13:01.815Z,12.24
2023-01-19T11:15:49.433Z,12.41
2023-01-19T11:18:38.924Z,12.36
2023-01-19T11:21:09.458Z,12.47
2023-01-19T11:23:42.877Z,12.40
2023-01-19T11:26:16.448Z,12.18
2023-01-19T11:28:48.061Z,11.78
2023-01-19T11:31:14.848Z,11.86
2023-01-19T11:33:50.549Z,12.97
2023-01-19T11:36:36.463Z,12.98
2023-01-19T11:39:28.287Z,14.27
2023-01-19T11:42:06.432Z,13.85
2023-01-19T11:44:36.723Z,13.76
2023-01-19T11:47:12.464Z,12.98
2023-01-19T11:49:43.988Z,13.50
2023-01-19T11:52:33.973Z,13.55
2023-01-19T11:55:14.957Z,12.30
2023-01-19T11:57:51.130Z,11.74
2023-01-19T12:00:34.223Z,13.02
2023-01-19T12:03:17.940Z,12.58
2023-01-19T12:05:51.811Z,12.14
2023-01-19T12:08:27.152Z,11.84
2023-01-19T12:10:57.596Z,11.61
2023-01-19T12:13:26.624Z,11.34
2023-01-19T12:16:05.995Z,11.11
2023-01-19T12:18:38.933Z,11.13
2023-01-19T12:21:05.799Z,11.09
2023-01-19T12:23:47.475Z,10.88
2023-01-19T12:26:16.885Z,10.86
2023-01-19T12:28:47.490Z,10.89
2023-01-19T12:31:20.118Z,10.72
2023-01-19T12:33:47.487Z,10.90
2023-01-19T12:36:17.554Z,10.94
2023-01-19T12:38:55.293Z,10.77
2023-01-19T12:41:39.886Z,10.77
2023-01-19T12:44:14.008Z,10.68
2023-01-19T12:46:43.854Z,10.83
2023-01-19T12:49:34.205Z,10.75
2023-01-19T12:52:29.115Z,10.66
2023-01-19T12:54:58.708Z,10.05
2023-01-19T12:57:46.768Z,10.08
2023-01-19T13:00:22.512Z,10.13
2023-01-19T13:03:26.833Z,10.16
2023-01-19T13:05:55.419Z,10.14
2023-01-19T13:08:27.442Z,10.14
2023-01-19T13:11:00.300Z,10.16
2023-01-19T13:13:36.801Z,10.17
2023-01-19T13:16:19.014Z,10.27
2023-01-19T13:18:53.678Z,10.17
2023-01-19T13:21:29.615Z,10.13
2023-01-19T13:23:58.841Z,10.17
2023-01-19T13:26:38.804Z,10.05
2023-01-19T13:29:07.938Z,10.09
2023-01-19T13:31:36.789Z,10.33
2023-01-19T13:34:05.523Z,10.25
2023-01-19T13:36:37.639Z,10.12
2023-01-19T13:39:07.838Z,10.14
2023-01-19T13:41:40.615Z,10.03
2023-01-19T13:44:52.377Z,9.90
2023-01-19T13:47:25.399Z,9.94
2023-01-19T13:49:58.108Z,10.01
2023-01-19T13:52:27.550Z,9.89
2023-01-19T13:54:56.540Z,9.91
2023-01-19T13:57:43.630Z,9.92
2023-01-19T14:00:14.343Z,10.00
2023-01-19T14:02:50.533Z,9.93
2023-01-19T14:05:35.090Z,9.83
2023-01-19T14:08:13.860Z,9.67
2023-01-19T14:10:42.110Z,9.70
2023-01-19T14:13:35.506Z,9.67
2023-01-19T14:16:08.638Z,9.61
2023-01-19T14:18:36.568Z,9.46
2023-01-19T14:21:13.605Z,9.50
2023-01-19T14:23:47.397Z,9.37
2023-01-19T14:26:48.376Z,9.32
2023-01-19T14:29:32.886Z,9.27
2023-01-19T14:32:13.953Z,9.34
2023-01-19T14:35:05.113Z,9.34
2023-01-19T14:37:37.403Z,9.30
2023-01-19T14:40:18.751Z,9.23
2023-01-19T14:42:50.872Z,9.12
2023-01-19T14:45:40.714Z,9.18
2023-01-19T14:48:22.245Z,9.29
2023-01-19T14:51:02.962Z,9.02
2023-01-19T14:53:37.250Z,9.10
2023-01-19T14:56:05.881Z,8.94
2023-01-19T14:58:35.309Z,8.92
2023-01-19T15:01:03.060Z,9.06
2023-01-19T15:03:44.878Z,9.08
2023-01-19T15:06:31.744Z,8.99
2023-01-19T15:08:58.633Z,8.86
2023-01-19T15:11:32.918Z,8.91
2023-01-19T15:14:01.101Z,8.77
2023-01-19T15:16:29.954Z,8.76
2023-01-19T15:18:56.687Z,8.79
2023-01-19T15:21:26.506Z,8.74
2023-01-19T15:23:54.719Z,8.56
2023-01-19T15:26:26.350Z,8.39
2023-01-19T15:28:53.490Z,8.37
2023-01-19T15:31:22.763Z,8.36
2023-01-19T15:33:49.868Z,8.49
2023-01-19T15:36:19.728Z,8.49
2023-01-19T15:38:47.237Z,8.42
2023-01-19T15:41:18.235Z,8.45
2023-01-19T15:43:44.960Z,8.46
2023-01-19T15:46:15.574Z,8.52
2023-01-19T15:48:42.568Z,8.29
2023-01-19T15:51:13.963Z,8.27
2023-01-19T15:53:41.617Z,8.22
2023-01-19T15:56:21.141Z,8.22
2023-01-19T15:58:47.973Z,8.32
2023-01-19T16:01:22.737Z,8.42
2023-01-19T16:03:50.546Z,8.34
2023-01-19T16:06:18.232Z,8.35
2023-01-19T16:08:45.366Z,8.44
2023-01-19T16:11:15.030Z,8.35
2023-01-19T16:13:45.804Z,8.33
2023-01-19T16:16:18.205Z,8.42
2023-01-19T16:18:45.933Z,8.48
2023-01-19T16:21:12.645Z,8.23
2023-01-19T16:23:39.341Z,8.67
2023-01-19T16:26:22.115Z,8.74
2023-01-19T16:28:49.102Z,9.03
2023-01-19T16:31:16.761Z,8.82
2023-01-19T16:33:45.040Z,8.68
2023-01-19T16:36:29.906Z,8.57
2023-01-19T16:39:08.139Z,8.49
2023-01-19T16:41:35.469Z,8.50
2023-01-19T16:44:02.529Z,8.43
2023-01-19T16:46:33.977Z,8.54
2023-01-19T16:49:22.392Z,8.34
2023-01-19T16:51:49.269Z,8.33
2023-01-19T16:54:26.223Z,8.44
2023-01-19T16:56:54.678Z,8.39
2023-01-19T16:59:22.449Z,8.41
2023-01-19T17:01:51.094Z,8.42
2023-01-19T17:04:19.840Z,8.35
2023-01-19T17:06:46.841Z,8.45
2023-01-19T17:09:13.994Z,8.50
2023-01-19T17:11:41.169Z,8.43
2023-01-19T17:14:12.334Z,8.42
2023-01-19T17:16:39.058Z,8.11
2023-01-19T17:19:07.600Z,8.07
2023-01-19T17:21:35.560Z,8.09
2023-01-19T17:24:02.271Z,8.08
2023-01-19T17:26:31.163Z,8.12
2023-01-19T17:28:59.813Z,8.13
2023-01-19T17:31:26.966Z,8.00
2023-01-19T17:33:53.853Z,7.86
2023-01-19T17:36:22.891Z,8.00
2023-01-19T17:38:50.321Z,7.71
2023-01-19T17:41:28.608Z,8.06
2023-01-19T17:43:56.179Z,7.99
2023-01-19T17:46:25.265Z,7.80
2023-01-19T17:48:58.456Z,7.81
2023-01-19T17:51:26.132Z,7.87
2023-01-19T17:53:53.785Z,7.77
2023-01-19T17:56:22.838Z,7.73
2023-01-19T17:58:49.805Z,7.77
2023-01-19T18:01:18.906Z,7.84
2023-01-19T18:03:46.139Z,7.90
2023-01-19T18:06:13.647Z,7.89
2023-01-19T18:08:43.069Z,7.87
2023-01-19T18:11:10.940Z,7.83
2023-01-19T18:13:38.867Z,8.11
2023-01-19T18:16:09.279Z,7.98
2023-01-19T18:18:36.592Z,8.32
2023-01-19T18:21:09.132Z,8.41
2023-01-19T18:23:36.762Z,8.56
2023-01-19T18:26:09.695Z,8.37
2023-01-19T18:28:37.110Z,8.66
2023-01-19T18:31:10.442Z,8.57
2023-01-19T18:33:38.909Z,8.76
2023-01-19T18:36:06.931Z,8.59
2023-01-19T18:38:34.955Z,8.79
2023-01-19T18:41:03.918Z,8.84
2023-01-19T18:43:31.057Z,8.81
2023-01-19T18:45:57.860Z,8.92
2023-01-19T18:48:25.021Z,8.81
2023-01-19T18:50:54.455Z,8.73
2023-01-19T18:53:22.083Z,8.72
2023-01-19T18:56:00.129Z,8.75
2023-01-19T18:58:29.830Z,8.63
2023-01-19T19:00:57.786Z,8.61
2023-01-19T19:03:24.931Z,8.58
2023-01-19T19:05:51.721Z,8.39
2023-01-19T19:08:20.748Z,8.29
2023-01-19T19:10:47.538Z,8.35
2023-01-19T19:13:16.195Z,8.17
2023-01-19T19:15:44.518Z,8.24
2023-01-19T19:18:13.962Z,7.96
2023-01-19T19:20:43.465Z,8.13
2023-01-19T19:23:11.746Z,8.31
2023-01-19T19:25:38.697Z,8.11
2023-01-19T19:28:05.584Z,7.83
2023-01-19T19:30:34.434Z,7.86
2023-01-19T19:33:01.507Z,7.77
2023-01-19T19:35:28.340Z,7.91
2023-01-19T19:37:57.743Z,8.07
2023-01-19T19:40:28.286Z,7.59
2023-01-19T19:42:58.331Z,7.65
2023-01-19T19:45:26.089Z,7.95
2023-01-19T19:47:52.798Z,8.03
2023-01-19T19:50:19.493Z,8.12
2023-01-19T19:52:46.516Z,7.96
2023-01-19T19:55:13.409Z,7.82
2023-01-19T19:57:40.208Z,7.87
2023-01-19T20:00:08.310Z,7.86
2023-01-19T20:02:35.261Z,7.93
2023-01-19T20:05:01.971Z,7.86
2023-01-19T20:07:28.718Z,7.84
2023-01-19T20:09:55.456Z,7.70
2023-01-19T20:12:22.330Z,7.86
2023-01-19T20:14:49.337Z,7.76
2023-01-19T20:17:16.140Z,7.74
2023-01-19T20:19:43.946Z,7.75
2023-01-19T20:22:12.741Z,7.70
2023-01-19T20:24:39.525Z,7.61
2023-01-19T20:27:06.255Z,7.65
2023-01-19T20:29:32.911Z,7.74
2023-01-19T20:31:59.617Z,7.77
2023-01-19T20:34:32.166Z,7.77
2023-01-19T20:37:01.784Z,7.86
2023-01-19T20:39:30.224Z,8.11
2023-01-19T20:41:57.224Z,8.33
2023-01-19T20:44:25.737Z,8.43
2023-01-19T20:46:53.522Z,8.29
2023-01-19T20:49:20.790Z,8.53
2023-01-19T20:51:48.417Z,8.57
2023-01-19T20:54:17.164Z,8.44
2023-01-19T20:56:44.278Z,8.46
2023-01-19T20:59:12.276Z,8.45
2023-01-19T21:01:40.371Z,8.38
2023-01-19T21:04:07.379Z,8.19
2023-01-19T21:06:34.433Z,8.09
2023-01-19T21:09:01.584Z,7.99
2023-01-19T21:11:28.654Z,8.17
2023-01-19T21:13:58.454Z,8.18
2023-01-19T21:16:27.824Z,7.72
2023-01-19T21:18:55.236Z,7.83
2023-01-19T21:21:30.400Z,7.40
2023-01-19T21:24:02.007Z,7.57
2023-01-19T21:26:33.527Z,7.71
2023-01-19T21:29:01.484Z,7.70
2023-01-19T21:31:28.782Z,7.84
2023-01-19T21:33:56.908Z,7.92
2023-01-19T21:36:24.658Z,7.95
2023-01-19T21:38:52.506Z,8.05
2023-01-19T21:41:19.657Z,7.84
2023-01-19T21:43:46.808Z,7.81
2023-01-19T21:46:18.506Z,7.61
2023-01-19T21:48:46.049Z,7.59
2023-01-19T21:51:13.847Z,7.55
2023-01-19T21:53:43.421Z,7.60
2023-01-19T21:56:11.328Z,7.51
2023-01-19T21:58:38.273Z,7.35
2023-01-19T22:01:10.891Z,7.48
2023-01-19T22:03:37.947Z,7.44
2023-01-19T22:06:06.479Z,7.54
2023-01-19T22:08:33.960Z,7.66
2023-01-19T22:11:12.280Z,7.69
2023-01-19T22:13:40.130Z,7.70
2023-01-19T22:16:13.523Z,7.81
2023-01-19T22:18:42.276Z,7.84
2023-01-19T22:21:14.989Z,7.70
2023-01-19T22:23:42.446Z,7.66
2023-01-19T22:26:11.843Z,7.63
2023-01-19T22:28:39.087Z,7.74
2023-01-19T22:31:11.988Z,7.85
2023-01-19T22:33:39.246Z,8.02
2023-01-19T22:36:25.800Z,7.96
2023-01-19T22:38:56.843Z,8.11
2023-01-19T22:41:27.690Z,8.22
2023-01-19T22:43:57.069Z,8.15
2023-01-19T22:46:26.158Z,8.29
2023-01-19T22:48:53.503Z,8.47
2023-01-19T22:51:21.333Z,8.54
2023-01-19T22:53:48.518Z,8.48
2023-01-19T22:56:15.089Z,8.36
2023-01-19T22:58:44.333Z,8.20
2023-01-19T23:01:15.779Z,8.22
2023-01-19T23:03:43.109Z,8.19
2023-01-19T23:06:17.601Z,8.36
2023-01-19T23:08:44.259Z,8.34
2023-01-19T23:11:13.288Z,8.43
2023-01-19T23:13:40.496Z,8.46
2023-01-19T23:16:09.521Z,8.41
2023-01-19T23:18:36.580Z,8.47
2023-01-19T23:21:10.918Z,8.62
2023-01-19T23:23:38.520Z,8.65
2023-01-19T23:26:11.087Z,8.59
2023-01-19T23:28:39.284Z,8.68
2023-01-19T23:31:16.333Z,8.61
2023-01-19T23:33:44.445Z,8.56
2023-01-19T23:36:12.732Z,8.46
2023-01-19T23:38:39.960Z,8.53
2023-01-19T23:41:07.009Z,8.65
2023-01-19T23:43:33.770Z,8.73
2023-01-19T23:46:08.682Z,8.79
2023-01-19T23:48:36.050Z,8.80
2023-01-19T23:51:11.046Z,8.79
2023-01-19T23:53:38.149Z,8.73
2023-01-19T23:56:11.866Z,8.66
2023-01-19T23:58:38.858Z,8.69
